Time;durP1;ratioP1;P1;durP2;ratioP2;P2;SDS_P1;SDS_P2;PMS_P1;PMS_P2;Temp;Humidity;BMP_temperature;BMP_pressure;BME280_temperature;BME280_humidity;BME280_pressure;Samples;Min_cycle;Max_cycle;Signal;HPM_P1;HPM_P2
2021/08/08 00:01:35;;;;;;;2.95;2.08;;;;;;;17.16;89.69;98609.19;5014517;28;20209;-72
2021/08/08 00:04:04;;;;;;;4.57;1.80;;;;;;;17.26;89.48;98614.56;5014664;28;20230;-74
2021/08/08 00:06:33;;;;;;;5.88;1.83;;;;;;;17.19;89.42;98622.50;5014711;28;20648;-73
2021/08/08 00:08:59;;;;;;;2.20;1.25;;;;;;;17.29;88.37;98615.09;5015626;28;20212;-73
2021/08/08 00:11:26;;;;;;;3.75;1.73;;;;;;;17.23;89.01;98617.59;5022184;28;20201;-73
2021/08/08 00:13:53;;;;;;;2.88;1.48;;;;;;;17.29;88.58;98622.41;5023098;28;20187;-74
2021/08/08 00:16:19;;;;;;;2.80;1.83;;;;;;;17.31;88.64;98628.56;5027584;28;20275;-73
2021/08/08 00:18:46;;;;;;;2.47;1.67;;;;;;;17.36;87.97;98638.97;5016294;28;20198;-73
2021/08/08 00:21:12;;;;;;;3.85;1.80;;;;;;;17.46;87.42;98631.59;5014460;28;20194;-73
2021/08/08 00:23:40;;;;;;;3.42;1.30;;;;;;;17.50;86.06;98636.56;5014695;28;20688;-74
2021/08/08 00:26:07;;;;;;;1.90;1.70;;;;;;;17.49;85.93;98639.44;5018192;28;20199;-72
2021/08/08 00:28:34;;;;;;;2.20;1.65;;;;;;;17.57;84.70;98639.50;5024028;28;20560;-73
2021/08/08 00:31:00;;;;;;;2.65;1.50;;;;;;;17.48;85.07;98654.91;5025952;28;20289;-74
2021/08/08 00:33:27;;;;;;;2.45;1.58;;;;;;;17.43;84.82;98659.94;5025376;28;20231;-74
2021/08/08 00:35:54;;;;;;;3.95;2.20;;;;;;;17.42;85.08;98655.53;5029021;28;20195;-74
2021/08/08 00:38:21;;;;;;;2.05;1.58;;;;;;;17.48;84.57;98656.78;5022836;28;20202;-74
2021/08/08 00:40:49;;;;;;;2.00;1.30;;;;;;;17.34;85.12;98666.31;5022684;28;20217;-73
2021/08/08 00:43:15;;;;;;;2.80;1.40;;;;;;;17.37;85.01;98665.19;5013953;28;20206;-73
2021/08/08 00:45:42;;;;;;;2.85;1.70;;;;;;;17.38;85.35;98662.28;5021376;28;20231;-74
2021/08/08 00:48:08;;;;;;;2.85;1.10;;;;;;;17.26;86.56;98666.25;5014382;28;20191;-73
2021/08/08 00:50:35;;;;;;;2.33;1.33;;;;;;;17.34;86.42;98663.59;5014236;28;20691;-74
2021/08/08 00:53:02;;;;;;;1.95;1.40;;;;;;;17.37;86.57;98665.19;5015674;28;20196;-73
2021/08/08 00:55:28;;;;;;;1.80;1.10;;;;;;;17.38;86.35;98672.31;5025803;28;20230;-73
2021/08/08 00:57:56;;;;;;;3.10;1.30;;;;;;;17.37;86.49;98667.91;5029183;28;20195;-73
2021/08/08 01:00:23;;;;;;;2.97;1.40;;;;;;;17.29;87.42;98665.94;5028713;28;20218;-73
2021/08/08 01:02:54;;;;;;;2.72;1.65;;;;;;;17.37;87.09;98665.19;5014100;28;20688;-73
2021/08/08 01:05:27;;;;;;;1.90;1.48;;;;;;;17.35;87.90;98665.31;5022554;28;20289;-73
2021/08/08 01:08:00;;;;;;;2.10;1.35;;;;;;;17.53;86.50;98664.47;5013464;28;20544;-73
2021/08/08 01:10:27;;;;;;;2.53;2.17;;;;;;;17.37;87.12;98659.75;5015227;28;20558;-74
2021/08/08 01:12:56;;;;;;;4.38;1.77;;;;;;;17.43;87.21;98664.53;5021406;28;20219;-74
2021/08/08 01:15:23;;;;;;;4.50;1.50;;;;;;;17.46;87.20;98670.53;5016086;28;20286;-74
2021/08/08 01:17:51;;;;;;;1.42;1.10;;;;;;;17.33;88.05;98664.63;5027966;28;20190;-73
2021/08/08 01:20:19;;;;;;;2.00;1.38;;;;;;;17.27;89.13;98670.69;5021377;28;20637;-73
2021/08/08 01:22:49;;;;;;;1.70;1.20;;;;;;;17.20;89.65;98667.72;5013621;28;20187;-73
2021/08/08 01:25:17;;;;;;;4.32;1.95;;;;;;;17.18;89.58;98677.03;5014956;28;20547;-74
2021/08/08 01:27:44;;;;;;;1.63;1.48;;;;;;;17.15;89.90;98674.63;5013246;28;20282;-74
2021/08/08 01:30:11;;;;;;;4.70;1.70;;;;;;;16.98;91.42;98679.91;5019451;28;20224;-74
2021/08/08 01:32:38;;;;;;;3.92;1.60;;;;;;;17.04;90.80;98679.28;5032549;28;20187;-74
2021/08/08 01:35:06;;;;;;;2.30;1.70;;;;;;;16.95;91.45;98676.63;5024669;28;20262;-74
2021/08/08 01:37:32;;;;;;;5.50;1.98;;;;;;;16.94;91.25;98670.34;5023625;28;20222;-73
2021/08/08 01:40:02;;;;;;;2.30;1.65;;;;;;;16.95;91.59;98672.03;5016626;28;20186;-72
2021/08/08 01:42:31;;;;;;;2.85;1.75;;;;;;;16.90;91.39;98679.78;5025005;28;20211;-72
2021/08/08 01:44:58;;;;;;;2.10;1.85;;;;;;;16.94;90.83;98686.66;5024294;28;20273;-73
2021/08/08 01:47:30;;;;;;;4.57;1.50;;;;;;;16.90;90.58;98690.66;5024454;28;20610;-73
2021/08/08 01:49:59;;;;;;;4.13;1.58;;;;;;;16.92;90.55;98687.81;5013922;28;20292;-73
2021/08/08 01:52:26;;;;;;;3.38;1.45;;;;;;;16.91;90.81;98689.66;5013092;28;20274;-73
2021/08/08 01:54:54;;;;;;;2.60;1.50;;;;;;;16.84;91.42;98688.56;5020579;28;20281;-73
2021/08/08 01:57:22;;;;;;;2.38;1.63;;;;;;;16.92;90.48;98690.53;5013024;28;20198;-73
2021/08/08 01:59:50;;;;;;;3.05;1.80;;;;;;;16.82;90.03;98694.16;5013227;28;20309;-73
2021/08/08 02:02:17;;;;;;;5.47;2.00;;;;;;;16.79;90.28;98679.97;5016133;28;21115;-73
2021/08/08 02:04:45;;;;;;;2.75;1.77;;;;;;;16.74;90.92;98685.84;5016940;28;20202;-74
2021/08/08 02:07:13;;;;;;;3.95;1.95;;;;;;;16.65;91.98;98692.19;5021973;28;20190;-75
2021/08/08 02:09:40;;;;;;;5.05;1.80;;;;;;;16.56;91.52;98685.78;5031890;28;20222;-73
2021/08/08 02:12:07;;;;;;;2.22;1.40;;;;;;;16.58;91.92;98689.22;5015120;28;20278;-73
2021/08/08 02:14:34;;;;;;;4.28;1.67;;;;;;;16.48;92.52;98682.94;5020589;28;20194;-74
2021/08/08 02:17:03;;;;;;;4.00;1.80;;;;;;;16.47;92.14;98679.38;5011998;28;20282;-73
2021/08/08 02:19:30;;;;;;;5.00;1.58;;;;;;;16.43;92.58;98693.41;5011981;28;20282;-73
2021/08/08 02:21:57;;;;;;;3.03;1.40;;;;;;;16.42;92.99;98694.44;5012281;28;20196;-75
2021/08/08 02:24:24;;;;;;;1.98;1.70;;;;;;;16.30;93.63;98685.59;5020246;28;20639;-73
2021/08/08 02:26:51;;;;;;;2.00;1.50;;;;;;;16.31;93.78;98692.75;5013678;28;20198;-73
2021/08/08 02:29:17;;;;;;;2.67;1.85;;;;;;;16.41;92.75;98709.84;5012483;28;20188;-73
2021/08/08 02:31:46;;;;;;;2.67;1.55;;;;;;;16.40;92.38;98702.72;5019826;28;20214;-73
2021/08/08 02:34:15;;;;;;;6.60;2.10;;;;;;;16.39;93.16;98709.19;5020762;28;20552;-72
2021/08/08 02:36:42;;;;;;;3.35;1.65;;;;;;;16.42;92.28;98708.88;5028519;28;20197;-73
2021/08/08 02:39:09;;;;;;;1.75;1.45;;;;;;;16.43;91.59;98709.72;5020108;28;20179;-73
2021/08/08 02:41:36;;;;;;;2.85;1.30;;;;;;;16.36;92.21;98701.31;5019496;28;20248;-72
2021/08/08 02:44:04;;;;;;;4.82;2.10;;;;;;;16.21;93.52;98691.91;5020381;28;20278;-73
2021/08/08 02:46:31;;;;;;;2.88;1.50;;;;;;;16.15;93.64;98700.66;5012062;28;20293;-73
2021/08/08 02:48:58;;;;;;;5.10;1.98;;;;;;;16.11;94.65;98702.81;5011976;28;20205;-73
2021/08/08 02:51:26;;;;;;;2.40;1.88;;;;;;;16.20;93.03;98704.63;5011831;28;20309;-73
2021/08/08 02:53:52;;;;;;;4.40;1.95;;;;;;;16.09;94.04;98707.53;5012282;28;20201;-75
2021/08/08 02:56:19;;;;;;;4.18;1.50;;;;;;;16.13;93.72;98702.66;5019824;28;20191;-72
2021/08/08 02:58:45;;;;;;;3.40;1.73;;;;;;;16.07;93.81;98714.94;5011959;28;20285;-72
2021/08/08 03:01:12;;;;;;;2.50;1.90;;;;;;;16.09;93.74;98707.53;5023343;28;20182;-73
2021/08/08 03:03:39;;;;;;;3.95;1.80;;;;;;;16.13;93.05;98721.69;5016894;28;20231;-74
2021/08/08 03:06:10;;;;;;;5.45;2.08;;;;;;;16.07;93.40;98725.81;5011914;28;20203;-73
2021/08/08 03:08:39;;;;;;;7.47;2.13;;;;;;;15.99;93.50;98726.56;5012099;28;20194;-73
2021/08/08 03:11:06;;;;;;;3.13;1.80;;;;;;;15.87;94.92;98730.41;5011992;28;20210;-74
2021/08/08 03:13:33;;;;;;;3.88;1.95;;;;;;;15.67;95.25;98720.53;5031213;28;20284;-72
2021/08/08 03:15:59;;;;;;;3.80;1.85;;;;;;;15.62;96.38;98710.97;5015501;28;20191;-74
2021/08/08 03:18:26;;;;;;;4.07;2.03;;;;;;;15.75;96.38;98720.72;5011732;28;20216;-74
2021/08/08 03:20:53;;;;;;;4.65;1.83;;;;;;;15.75;95.27;98727.00;5017295;28;20273;-74
2021/08/08 03:23:20;;;;;;;4.53;1.90;;;;;;;15.73;95.15;98728.13;5022723;28;20202;-74
2021/08/08 03:25:48;;;;;;;2.33;2.00;;;;;;;15.66;95.62;98727.81;5031517;28;20604;-74
2021/08/08 03:28:14;;;;;;;2.28;1.88;;;;;;;15.56;95.77;98738.69;5015344;28;20539;-73
2021/08/08 03:30:41;;;;;;;4.55;1.98;;;;;;;15.61;95.92;98747.25;5020461;28;20297;-73
2021/08/08 03:33:08;;;;;;;3.17;2.13;;;;;;;15.68;94.69;98743.97;5029748;28;20194;-73
2021/08/08 03:35:34;;;;;;;2.70;1.90;;;;;;;15.52;95.55;98747.25;5026812;28;20282;-73
2021/08/08 03:38:01;;;;;;;2.15;1.95;;;;;;;15.56;95.16;98754.97;5030267;28;20281;-74
2021/08/08 03:40:28;;;;;;;2.55;1.90;;;;;;;15.47;95.99;98755.81;5019367;28;20237;-74
2021/08/08 03:42:56;;;;;;;2.80;2.40;;;;;;;15.56;95.30;98754.09;5026516;28;20198;-75
2021/08/08 03:45:23;;;;;;;3.78;2.30;;;;;;;15.42;95.64;98761.66;5028047;28;20198;-73
2021/08/08 03:47:49;;;;;;;3.70;2.20;;;;;;;15.48;96.34;98762.94;5023310;28;20527;-73
2021/08/08 03:50:18;;;;;;;3.20;1.70;;;;;;;15.61;94.75;98773.53;5014647;28;20304;-74
2021/08/08 03:52:45;;;;;;;4.60;2.25;;;;;;;15.61;94.28;98779.81;5015011;28;20205;-73
2021/08/08 03:55:11;;;;;;;6.32;2.00;;;;;;;15.49;95.06;98769.19;5015510;28;20191;-73
2021/08/08 03:57:38;;;;;;;3.10;2.10;;;;;;;15.49;94.94;98778.22;5022314;28;20186;-73
2021/08/08 04:00:07;;;;;;;3.90;2.35;;;;;;;15.39;96.11;98775.47;5015084;28;20205;-72
2021/08/08 04:02:34;;;;;;;3.03;2.03;;;;;;;15.37;96.11;98782.03;5020732;28;20230;-73
2021/08/08 04:05:01;;;;;;;3.33;1.80;;;;;;;15.52;95.03;98777.94;5026253;28;20203;-74
2021/08/08 04:07:27;;;;;;;3.58;1.95;;;;;;;15.57;93.95;98783.78;5029630;28;20206;-73
2021/08/08 04:09:54;;;;;;;5.13;2.08;;;;;;;15.58;93.47;98780.09;5014616;28;20190;-75
2021/08/08 04:12:20;;;;;;;3.78;1.90;;;;;;;15.54;93.59;98784.09;5018054;28;20714;-72
2021/08/08 04:14:47;;;;;;;7.28;2.33;;;;;;;15.63;93.34;98796.81;5018988;28;20202;-73
2021/08/08 04:17:16;;;;;;;5.00;2.15;;;;;;;15.56;93.86;98792.94;5022102;28;20617;-74
2021/08/08 04:19:42;;;;;;;3.30;2.10;;;;;;;15.56;93.96;98794.81;5014413;28;20198;-73
2021/08/08 04:22:09;;;;;;;5.97;2.78;;;;;;;15.49;94.83;98791.78;5014603;28;20206;-74
2021/08/08 04:24:35;;;;;;;4.78;2.33;;;;;;;15.57;93.46;98797.34;5014552;28;20285;-74
2021/08/08 04:27:02;;;;;;;6.78;2.80;;;;;;;15.60;93.10;98797.09;5030084;28;20284;-74
2021/08/08 04:29:28;;;;;;;6.05;2.65;;;;;;;15.54;93.64;98807.66;5022703;28;20625;-75
2021/08/08 04:31:55;;;;;;;3.13;2.55;;;;;;;15.54;93.96;98807.66;5022050;28;20290;-74
2021/08/08 04:34:23;;;;;;;4.03;2.75;;;;;;;15.49;94.12;98807.19;5031599;28;20292;-74
2021/08/08 04:36:50;;;;;;;4.70;3.00;;;;;;;15.54;94.19;98816.63;5020205;28;20187;-74
2021/08/08 04:39:16;;;;;;;4.53;2.50;;;;;;;15.50;94.88;98815.19;5014649;28;20607;-75
2021/08/08 04:41:43;;;;;;;3.08;2.42;;;;;;;15.54;94.95;98821.22;5014190;28;20202;-75
2021/08/08 04:44:09;;;;;;;4.75;2.47;;;;;;;15.55;94.88;98822.91;5021292;28;20201;-74
2021/08/08 04:46:36;;;;;;;4.40;2.58;;;;;;;15.62;94.57;98824.94;5022549;28;20199;-74
2021/08/08 04:49:03;;;;;;;4.18;2.00;;;;;;;15.70;94.33;98829.66;5029955;28;20186;-74
2021/08/08 04:51:31;;;;;;;9.07;2.50;;;;;;;15.74;94.41;98828.41;5023116;28;20214;-74
2021/08/08 04:53:58;;;;;;;4.57;2.20;;;;;;;15.80;94.25;98825.13;5021958;28;20289;-74
2021/08/08 04:56:24;;;;;;;3.67;2.67;;;;;;;15.86;94.04;98828.28;5014081;28;20278;-74
2021/08/08 04:58:51;;;;;;;6.60;2.60;;;;;;;15.93;93.55;98834.88;5014248;28;20200;-73
2021/08/08 05:01:17;;;;;;;2.83;2.45;;;;;;;16.04;92.91;98835.56;5013708;28;20198;-73
2021/08/08 05:03:45;;;;;;;3.40;2.80;;;;;;;16.13;91.70;98844.72;5021021;28;20248;-73
2021/08/08 05:06:11;;;;;;;5.53;3.00;;;;;;;16.23;90.99;98833.84;5021530;28;20625;-73
2021/08/08 05:08:39;;;;;;;7.43;3.45;;;;;;;16.22;91.18;98834.88;5014252;28;20296;-74
2021/08/08 05:11:06;;;;;;;6.55;4.10;;;;;;;16.21;90.99;98842.16;5014003;28;20330;-73
2021/08/08 05:13:32;;;;;;;5.45;3.45;;;;;;;16.23;91.17;98847.44;5013866;28;20621;-74
2021/08/08 05:15:59;;;;;;;6.20;3.85;;;;;;;16.26;91.16;98848.00;5013715;28;20274;-75
2021/08/08 05:18:26;;;;;;;5.20;3.65;;;;;;;16.27;91.14;98846.16;5018706;28;20281;-75
2021/08/08 05:20:53;;;;;;;3.92;3.55;;;;;;;16.23;91.53;98850.16;5023906;28;20577;-74
2021/08/08 05:23:19;;;;;;;4.85;4.03;;;;;;;16.23;91.76;98850.16;5013646;28;20625;-74
2021/08/08 05:25:47;;;;;;;4.70;3.65;;;;;;;16.31;91.18;98858.44;5014271;28;20222;-74
2021/08/08 05:28:14;;;;;;;5.15;3.03;;;;;;;16.35;90.03;98846.28;5013505;28;20230;-74
2021/08/08 05:30:42;;;;;;;4.07;3.60;;;;;;;16.28;90.43;98856.03;5013726;28;20560;-73
2021/08/08 05:33:09;;;;;;;4.40;3.13;;;;;;;16.22;91.01;98857.44;5020531;28;20195;-72
2021/08/08 05:35:36;;;;;;;5.63;3.50;;;;;;;16.04;91.99;98848.28;5013069;28;20194;-73
2021/08/08 05:38:02;;;;;;;4.18;3.00;;;;;;;15.99;92.57;98847.88;5021745;28;20197;-73
2021/08/08 05:40:29;;;;;;;3.88;3.13;;;;;;;15.88;93.06;98850.72;5030906;28;20569;-74
2021/08/08 05:42:57;;;;;;;2.55;2.35;;;;;;;15.89;93.10;98850.56;5017093;28;20704;-73
2021/08/08 05:45:23;;;;;;;3.13;2.83;;;;;;;15.80;93.95;98854.97;5020588;28;20273;-73
2021/08/08 05:47:50;;;;;;;5.95;3.10;;;;;;;15.90;93.14;98859.59;5017216;28;20199;-74
2021/08/08 05:50:17;;;;;;;4.18;2.78;;;;;;;15.79;92.92;98866.00;5015472;28;20198;-73
2021/08/08 05:52:47;;;;;;;6.93;2.38;;;;;;;15.83;93.39;98870.16;5032877;28;20666;-73
2021/08/08 05:55:14;;;;;;;9.02;3.15;;;;;;;15.71;93.76;98863.09;5032547;28;20209;-72
2021/08/08 05:57:40;;;;;;;5.13;3.10;;;;;;;15.87;93.45;98877.00;5032832;28;20216;-73
2021/08/08 06:00:10;;;;;;;2.90;2.50;;;;;;;16.01;92.34;98883.88;5033244;28;20277;-74
2021/08/08 06:02:38;;;;;;;4.70;2.58;;;;;;;16.07;90.87;98883.31;5029013;28;20233;-73
2021/08/08 06:05:06;;;;;;;4.55;2.92;;;;;;;16.17;90.01;98889.63;5013283;28;20645;-74
2021/08/08 06:07:32;;;;;;;4.82;3.47;;;;;;;16.08;90.51;98895.00;5013382;28;20617;-73
2021/08/08 06:10:01;;;;;;;4.32;2.90;;;;;;;16.25;89.39;98897.03;5013281;28;20622;-73
2021/08/08 06:12:27;;;;;;;5.32;2.95;;;;;;;16.18;88.48;98896.75;5013333;28;20636;-73
2021/08/08 06:14:54;;;;;;;5.05;2.65;;;;;;;16.26;88.32;98887.91;5012974;28;20198;-73
2021/08/08 06:17:23;;;;;;;4.57;2.15;;;;;;;16.39;86.17;98893.03;5012802;28;20281;-74
2021/08/08 06:19:50;;;;;;;3.35;2.30;;;;;;;16.29;85.52;98901.19;5012401;28;20198;-72
2021/08/08 06:22:16;;;;;;;4.68;2.85;;;;;;;16.33;85.90;98904.50;5013643;28;20270;-74
2021/08/08 06:24:43;;;;;;;8.80;2.92;;;;;;;16.57;84.88;98910.31;5014171;28;20198;-73
2021/08/08 06:27:09;;;;;;;5.13;2.47;;;;;;;16.85;82.63;98905.06;5012763;28;20211;-73
2021/08/08 06:29:39;;;;;;;7.85;2.90;;;;;;;16.61;82.45;98913.63;5013022;28;20286;-73
2021/08/08 06:32:06;;;;;;;4.25;2.45;;;;;;;16.74;82.41;98905.19;5028405;28;20213;-73
2021/08/08 06:34:34;;;;;;;4.75;2.13;;;;;;;16.99;80.99;98907.31;5012695;28;20186;-73
2021/08/08 06:37:01;;;;;;;5.65;2.70;;;;;;;17.09;79.65;98904.53;5013170;28;20325;-73
2021/08/08 06:39:28;;;;;;;2.60;2.30;;;;;;;16.95;79.58;98919.47;5026146;28;20313;-73
2021/08/08 06:41:54;;;;;;;6.90;4.00;;;;;;;17.13;78.93;98921.44;5020350;28;20186;-72
2021/08/08 06:44:21;;;;;;;3.35;2.10;;;;;;;17.17;79.18;98925.59;5020364;28;20201;-72
2021/08/08 06:46:48;;;;;;;6.75;2.85;;;;;;;17.49;77.83;98926.03;5012662;28;20274;-73
2021/08/08 06:49:14;;;;;;;6.65;2.58;;;;;;;17.64;75.89;98928.28;5012410;28;20199;-73
2021/08/08 06:51:42;;;;;;;4.68;2.65;;;;;;;17.77;75.19;98927.91;5014032;28;20657;-73
2021/08/08 06:54:09;;;;;;;4.40;2.90;;;;;;;17.70;73.31;98933.09;5028274;28;20186;-73
2021/08/08 06:56:35;;;;;;;6.18;3.08;;;;;;;17.60;74.23;98946.75;5020851;28;20222;-73
2021/08/08 06:59:02;;;;;;;4.22;2.50;;;;;;;17.61;71.88;98944.88;5028603;28;20274;-73
2021/08/08 07:01:28;;;;;;;4.50;2.45;;;;;;;17.85;71.06;98939.78;5012600;28;20198;-73
2021/08/08 07:03:55;;;;;;;3.65;2.40;;;;;;;17.80;71.21;98939.38;5012518;28;20270;-73
2021/08/08 07:06:22;;;;;;;4.85;3.03;;;;;;;17.99;70.88;98945.75;5014681;28;20195;-73
2021/08/08 07:08:50;;;;;;;5.57;2.60;;;;;;;18.13;70.64;98943.38;5020846;28;20205;-73
2021/08/08 07:11:16;;;;;;;3.33;2.25;;;;;;;18.22;70.33;98946.16;5018671;28;20610;-74
2021/08/08 07:13:43;;;;;;;3.85;2.20;;;;;;;18.43;68.29;98938.56;5023230;28;20188;-74
2021/08/08 07:16:10;;;;;;;8.57;2.63;;;;;;;18.82;67.03;98953.75;5016290;28;20617;-75
2021/08/08 07:18:37;;;;;;;5.05;2.50;;;;;;;18.95;66.09;98949.63;5027085;28;20275;-73
2021/08/08 07:21:04;;;;;;;4.68;2.50;;;;;;;18.98;65.84;98955.78;5028613;28;20198;-73
